sensor_id;sensor_type;location;lat;lon;timestamp;P1;P2;P0
55518;PMS5003;41724;51.176;-0.708;2023-11-19T00:01:49;25;22;
55518;PMS5003;41724;51.176;-0.708;2023-11-19T00:04:16;17;16;
55518;PMS5003;41724;51.176;-0.708;2023-11-19T00:06:43;15;13;
55518;PMS5003;41724;51.176;-0.708;2023-11-19T00:09:10;23;19;
55518;PMS5003;41724;51.176;-0.708;2023-11-19T00:11:38;17;15;
55518;PMS5003;41724;51.176;-0.708;2023-11-19T00:14:05;21;19;
55518;PMS5003;41724;51.176;-0.708;2023-11-19T00:16:33;36;34;
55518;PMS5003;41724;51.176;-0.708;2023-11-19T00:18:59;21;19;
55518;PMS5003;41724;51.176;-0.708;2023-11-19T00:21:26;18;14;
55518;PMS5003;41724;51.176;-0.708;2023-11-19T00:23:54;25;23;
55518;PMS5003;41724;51.176;-0.708;2023-11-19T00:26:23;15;10;
55518;PMS5003;41724;51.176;-0.708;2023-11-19T00:28:50;16;16;
55518;PMS5003;41724;51.176;-0.708;2023-11-19T00:31:17;18;15;
55518;PMS5003;41724;51.176;-0.708;2023-11-19T00:33:47;32;25;
55518;PMS5003;41724;51.176;-0.708;2023-11-19T00:36:14;19;15;
55518;PMS5003;41724;51.176;-0.708;2023-11-19T00:38:41;18;15;
55518;PMS5003;41724;51.176;-0.708;2023-11-19T00:41:08;28;25;
55518;PMS5003;41724;51.176;-0.708;2023-11-19T00:43:35;24;20;
55518;PMS5003;41724;51.176;-0.708;2023-11-19T00:46:02;23;16;
55518;PMS5003;41724;51.176;-0.708;2023-11-19T00:48:29;15;14;
55518;PMS5003;41724;51.176;-0.708;2023-11-19T00:50:56;14;10;
55518;PMS5003;41724;51.176;-0.708;2023-11-19T00:53:23;17;11;
55518;PMS5003;41724;51.176;-0.708;2023-11-19T00:55:50;25;17;
55518;PMS5003;41724;51.176;-0.708;2023-11-19T00:58:19;17;13;
55518;PMS5003;41724;51.176;-0.708;2023-11-19T01:00:46;19;15;
55518;PMS5003;41724;51.176;-0.708;2023-11-19T01:03:13;15;11;
55518;PMS5003;41724;51.176;-0.708;2023-11-19T01:05:39;15;14;
55518;PMS5003;41724;51.176;-0.708;2023-11-19T01:08:09;13;10;
55518;PMS5003;41724;51.176;-0.708;2023-11-19T01:10:36;25;16;
55518;PMS5003;41724;51.176;-0.708;2023-11-19T01:13:04;22;17;
55518;PMS5003;41724;51.176;-0.708;2023-11-19T01:15:31;13;11;
55518;PMS5003;41724;51.176;-0.708;2023-11-19T01:17:58;22;15;
55518;PMS5003;41724;51.176;-0.708;2023-11-19T01:20:25;17;15;
55518;PMS5003;41724;51.176;-0.708;2023-11-19T01:22:52;13;12;
55518;PMS5003;41724;51.176;-0.708;2023-11-19T01:25:19;25;13;
55518;PMS5003;41724;51.176;-0.708;2023-11-19T01:27:46;16;12;
55518;PMS5003;41724;51.176;-0.708;2023-11-19T01:30:14;16;11;
55518;PMS5003;41724;51.176;-0.708;2023-11-19T01:32:40;13;11;
55518;PMS5003;41724;51.176;-0.708;2023-11-19T01:35:07;18;12;
55518;PMS5003;41724;51.176;-0.708;2023-11-19T01:37:34;18;16;
55518;PMS5003;41724;51.176;-0.708;2023-11-19T01:40:02;13;11;
55518;PMS5003;41724;51.176;-0.708;2023-11-19T01:42:30;14;9;
55518;PMS5003;41724;51.176;-0.708;2023-11-19T01:45:02;21;13;
55518;PMS5003;41724;51.176;-0.708;2023-11-19T01:47:30;16;12;
55518;PMS5003;41724;51.176;-0.708;2023-11-19T01:49:58;15;11;
55518;PMS5003;41724;51.176;-0.708;2023-11-19T01:52:26;10;9;
55518;PMS5003;41724;51.176;-0.708;2023-11-19T01:54:53;12;10;
55518;PMS5003;41724;51.176;-0.708;2023-11-19T01:57:23;16;13;
55518;PMS5003;41724;51.176;-0.708;2023-11-19T01:59:50;18;16;
55518;PMS5003;41724;51.176;-0.708;2023-11-19T02:02:18;11;7;
55518;PMS5003;41724;51.176;-0.708;2023-11-19T02:04:46;9;9;
55518;PMS5003;41724;51.176;-0.708;2023-11-19T02:07:14;18;9;
55518;PMS5003;41724;51.176;-0.708;2023-11-19T02:09:42;11;8;
55518;PMS5003;41724;51.176;-0.708;2023-11-19T02:12:09;13;8;
55518;PMS5003;41724;51.176;-0.708;2023-11-19T02:14:37;13;7;
55518;PMS5003;41724;51.176;-0.708;2023-11-19T02:17:04;9;6;
55518;PMS5003;41724;51.176;-0.708;2023-11-19T02:19:32;14;12;
55518;PMS5003;41724;51.176;-0.708;2023-11-19T02:21:59;8;6;
55518;PMS5003;41724;51.176;-0.708;2023-11-19T02:24:26;12;8;
55518;PMS5003;41724;51.176;-0.708;2023-11-19T02:26:58;11;7;
55518;PMS5003;41724;51.176;-0.708;2023-11-19T02:29:35;7;7;
55518;PMS5003;41724;51.176;-0.708;2023-11-19T02:32:02;13;10;
55518;PMS5003;41724;51.176;-0.708;2023-11-19T02:34:30;10;9;
55518;PMS5003;41724;51.176;-0.708;2023-11-19T02:36:57;12;9;
55518;PMS5003;41724;51.176;-0.708;2023-11-19T02:39:24;17;14;
55518;PMS5003;41724;51.176;-0.708;2023-11-19T02:41:51;13;11;
55518;PMS5003;41724;51.176;-0.708;2023-11-19T02:44:18;6;5;
55518;PMS5003;41724;51.176;-0.708;2023-11-19T02:46:44;11;9;
55518;PMS5003;41724;51.176;-0.708;2023-11-19T02:49:12;17;10;
55518;PMS5003;41724;51.176;-0.708;2023-11-19T02:51:39;10;6;
55518;PMS5003;41724;51.176;-0.708;2023-11-19T02:54:06;12;8;
55518;PMS5003;41724;51.176;-0.708;2023-11-19T02:56:33;19;14;
55518;PMS5003;41724;51.176;-0.708;2023-11-19T02:59:00;10;6;
55518;PMS5003;41724;51.176;-0.708;2023-11-19T03:01:27;14;9;
55518;PMS5003;41724;51.176;-0.708;2023-11-19T03:03:54;9;7;
55518;PMS5003;41724;51.176;-0.708;2023-11-19T03:06:21;8;7;
55518;PMS5003;41724;51.176;-0.708;2023-11-19T03:08:48;8;6;
55518;PMS5003;41724;51.176;-0.708;2023-11-19T03:11:15;13;9;
55518;PMS5003;41724;51.176;-0.708;2023-11-19T03:13:42;11;8;
55518;PMS5003;41724;51.176;-0.708;2023-11-19T03:16:09;17;13;
55518;PMS5003;41724;51.176;-0.708;2023-11-19T03:18:35;13;9;
55518;PMS5003;41724;51.176;-0.708;2023-11-19T03:21:03;13;10;
55518;PMS5003;41724;51.176;-0.708;2023-11-19T03:23:30;12;8;
55518;PMS5003;41724;51.176;-0.708;2023-11-19T03:25:57;15;12;
55518;PMS5003;41724;51.176;-0.708;2023-11-19T03:28:24;7;5;
55518;PMS5003;41724;51.176;-0.708;2023-11-19T03:30:51;12;8;
55518;PMS5003;41724;51.176;-0.708;2023-11-19T03:33:18;8;7;
55518;PMS5003;41724;51.176;-0.708;2023-11-19T03:35:44;5;5;
55518;PMS5003;41724;51.176;-0.708;2023-11-19T03:38:11;17;12;
55518;PMS5003;41724;51.176;-0.708;2023-11-19T03:40:38;12;11;
55518;PMS5003;41724;51.176;-0.708;2023-11-19T03:43:06;13;9;
55518;PMS5003;41724;51.176;-0.708;2023-11-19T03:45:33;11;7;
55518;PMS5003;41724;51.176;-0.708;2023-11-19T03:48:00;9;8;
55518;PMS5003;41724;51.176;-0.708;2023-11-19T03:50:27;10;7;
55518;PMS5003;41724;51.176;-0.708;2023-11-19T03:52:53;15;9;
55518;PMS5003;41724;51.176;-0.708;2023-11-19T03:55:21;7;6;
55518;PMS5003;41724;51.176;-0.708;2023-11-19T03:57:48;12;8;
55518;PMS5003;41724;51.176;-0.708;2023-11-19T04:00:15;18;14;
55518;PMS5003;41724;51.176;-0.708;2023-11-19T04:02:42;12;10;
55518;PMS5003;41724;51.176;-0.708;2023-11-19T04:05:09;15;11;
55518;PMS5003;41724;51.176;-0.708;2023-11-19T04:07:36;14;8;
55518;PMS5003;41724;51.176;-0.708;2023-11-19T04:10:03;9;7;
55518;PMS5003;41724;51.176;-0.708;2023-11-19T04:12:32;10;7;
55518;PMS5003;41724;51.176;-0.708;2023-11-19T04:14:58;17;15;
55518;PMS5003;41724;51.176;-0.708;2023-11-19T04:17:25;21;17;
55518;PMS5003;41724;51.176;-0.708;2023-11-19T04:19:52;11;11;
55518;PMS5003;41724;51.176;-0.708;2023-11-19T04:22:19;14;8;
55518;PMS5003;41724;51.176;-0.708;2023-11-19T04:24:46;8;6;
55518;PMS5003;41724;51.176;-0.708;2023-11-19T04:27:14;11;8;
55518;PMS5003;41724;51.176;-0.708;2023-11-19T04:29:41;14;12;
55518;PMS5003;41724;51.176;-0.708;2023-11-19T04:32:09;7;5;
55518;PMS5003;41724;51.176;-0.708;2023-11-19T04:34:36;10;8;
55518;PMS5003;41724;51.176;-0.708;2023-11-19T04:37:03;7;4;
55518;PMS5003;41724;51.176;-0.708;2023-11-19T04:39:30;12;11;
55518;PMS5003;41724;51.176;-0.708;2023-11-19T04:41:56;15;11;
55518;PMS5003;41724;51.176;-0.708;2023-11-19T04:44:23;13;9;
55518;PMS5003;41724;51.176;-0.708;2023-11-19T04:46:50;14;11;
55518;PMS5003;41724;51.176;-0.708;2023-11-19T04:49:17;11;7;
55518;PMS5003;41724;51.176;-0.708;2023-11-19T04:51:44;15;12;
55518;PMS5003;41724;51.176;-0.708;2023-11-19T04:54:12;12;8;
55518;PMS5003;41724;51.176;-0.708;2023-11-19T04:56:40;13;8;
55518;PMS5003;41724;51.176;-0.708;2023-11-19T04:59:13;11;8;
55518;PMS5003;41724;51.176;-0.708;2023-11-19T05:01:41;11;7;
55518;PMS5003;41724;51.176;-0.708;2023-11-19T05:04:14;9;8;
55518;PMS5003;41724;51.176;-0.708;2023-11-19T05:06:41;14;10;
55518;PMS5003;41724;51.176;-0.708;2023-11-19T05:09:08;11;9;
55518;PMS5003;41724;51.176;-0.708;2023-11-19T05:11:35;15;10;
55518;PMS5003;41724;51.176;-0.708;2023-11-19T05:14:03;11;7;
55518;PMS5003;41724;51.176;-0.708;2023-11-19T05:16:30;8;7;
55518;PMS5003;41724;51.176;-0.708;2023-11-19T05:18:57;5;5;
55518;PMS5003;41724;51.176;-0.708;2023-11-19T05:21:24;10;7;
55518;PMS5003;41724;51.176;-0.708;2023-11-19T05:23:51;10;7;
55518;PMS5003;41724;51.176;-0.708;2023-11-19T05:26:18;6;5;
55518;PMS5003;41724;51.176;-0.708;2023-11-19T05:28:46;12;7;
55518;PMS5003;41724;51.176;-0.708;2023-11-19T05:31:13;11;8;
55518;PMS5003;41724;51.176;-0.708;2023-11-19T05:33:40;7;6;
55518;PMS5003;41724;51.176;-0.708;2023-11-19T05:36:08;14;10;
55518;PMS5003;41724;51.176;-0.708;2023-11-19T05:38:39;12;8;
55518;PMS5003;41724;51.176;-0.708;2023-11-19T05:41:07;8;5;
55518;PMS5003;41724;51.176;-0.708;2023-11-19T05:43:34;9;7;
55518;PMS5003;41724;51.176;-0.708;2023-11-19T05:46:01;10;6;
55518;PMS5003;41724;51.176;-0.708;2023-11-19T05:48:28;8;7;
55518;PMS5003;41724;51.176;-0.708;2023-11-19T05:50:55;14;10;
55518;PMS5003;41724;51.176;-0.708;2023-11-19T05:53:22;11;7;
55518;PMS5003;41724;51.176;-0.708;2023-11-19T05:55:49;12;11;
55518;PMS5003;41724;51.176;-0.708;2023-11-19T05:58:16;5;5;
55518;PMS5003;41724;51.176;-0.708;2023-11-19T06:00:43;8;6;
55518;PMS5003;41724;51.176;-0.708;2023-11-19T06:03:13;9;6;
55518;PMS5003;41724;51.176;-0.708;2023-11-19T06:05:40;11;6;
55518;PMS5003;41724;51.176;-0.708;2023-11-19T06:08:07;11;8;
55518;PMS5003;41724;51.176;-0.708;2023-11-19T06:10:34;8;5;
55518;PMS5003;41724;51.176;-0.708;2023-11-19T06:13:01;18;14;
55518;PMS5003;41724;51.176;-0.708;2023-11-19T06:15:29;16;11;
55518;PMS5003;41724;51.176;-0.708;2023-11-19T06:17:56;9;7;
55518;PMS5003;41724;51.176;-0.708;2023-11-19T06:20:23;9;8;
55518;PMS5003;41724;51.176;-0.708;2023-11-19T06:22:50;17;10;
55518;PMS5003;41724;51.176;-0.708;2023-11-19T06:25:18;8;5;
55518;PMS5003;41724;51.176;-0.708;2023-11-19T06:27:45;14;12;
55518;PMS5003;41724;51.176;-0.708;2023-11-19T06:30:13;13;7;
55518;PMS5003;41724;51.176;-0.708;2023-11-19T06:32:40;10;7;
55518;PMS5003;41724;51.176;-0.708;2023-11-19T06:35:07;9;7;
55518;PMS5003;41724;51.176;-0.708;2023-11-19T06:37:35;9;7;
55518;PMS5003;41724;51.176;-0.708;2023-11-19T06:40:07;9;8;
55518;PMS5003;41724;51.176;-0.708;2023-11-19T06:42:35;11;9;
55518;PMS5003;41724;51.176;-0.708;2023-11-19T06:45:02;9;7;
55518;PMS5003;41724;51.176;-0.708;2023-11-19T06:47:30;7;6;
55518;PMS5003;41724;51.176;-0.708;2023-11-19T06:49:58;19;11;
55518;PMS5003;41724;51.176;-0.708;2023-11-19T06:52:25;7;5;
55518;PMS5003;41724;51.176;-0.708;2023-11-19T06:54:53;7;6;
55518;PMS5003;41724;51.176;-0.708;2023-11-19T06:57:19;9;7;
55518;PMS5003;41724;51.176;-0.708;2023-11-19T06:59:46;5;5;
55518;PMS5003;41724;51.176;-0.708;2023-11-19T07:02:14;12;9;
55518;PMS5003;41724;51.176;-0.708;2023-11-19T07:04:41;7;6;
55518;PMS5003;41724;51.176;-0.708;2023-11-19T07:07:08;9;7;
55518;PMS5003;41724;51.176;-0.708;2023-11-19T07:09:35;9;7;
55518;PMS5003;41724;51.176;-0.708;2023-11-19T07:12:02;10;5;
55518;PMS5003;41724;51.176;-0.708;2023-11-19T07:14:29;9;8;
55518;PMS5003;41724;51.176;-0.708;2023-11-19T07:16:56;6;5;
55518;PMS5003;41724;51.176;-0.708;2023-11-19T07:19:24;9;7;
55518;PMS5003;41724;51.176;-0.708;2023-11-19T07:21:50;10;5;
55518;PMS5003;41724;51.176;-0.708;2023-11-19T07:24:18;6;5;
55518;PMS5003;41724;51.176;-0.708;2023-11-19T07:26:46;13;8;
55518;PMS5003;41724;51.176;-0.708;2023-11-19T07:29:13;8;7;
55518;PMS5003;41724;51.176;-0.708;2023-11-19T07:31:40;6;5;
55518;PMS5003;41724;51.176;-0.708;2023-11-19T07:34:07;11;7;
55518;PMS5003;41724;51.176;-0.708;2023-11-19T07:36:34;7;5;
55518;PMS5003;41724;51.176;-0.708;2023-11-19T07:39:01;4;4;
55518;PMS5003;41724;51.176;-0.708;2023-11-19T07:41:30;5;3;
55518;PMS5003;41724;51.176;-0.708;2023-11-19T07:43:57;6;5;
55518;PMS5003;41724;51.176;-0.708;2023-11-19T07:46:24;7;5;
55518;PMS5003;41724;51.176;-0.708;2023-11-19T07:48:51;10;5;
55518;PMS5003;41724;51.176;-0.708;2023-11-19T07:51:19;4;4;
55518;PMS5003;41724;51.176;-0.708;2023-11-19T07:53:46;8;7;
55518;PMS5003;41724;51.176;-0.708;2023-11-19T07:56:13;8;6;
55518;PMS5003;41724;51.176;-0.708;2023-11-19T07:58:40;7;4;
55518;PMS5003;41724;51.176;-0.708;2023-11-19T08:01:07;7;7;
55518;PMS5003;41724;51.176;-0.708;2023-11-19T08:03:35;2;2;
55518;PMS5003;41724;51.176;-0.708;2023-11-19T08:06:03;7;4;
55518;PMS5003;41724;51.176;-0.708;2023-11-19T08:08:31;9;6;
55518;PMS5003;41724;51.176;-0.708;2023-11-19T08:10:58;9;6;
55518;PMS5003;41724;51.176;-0.708;2023-11-19T08:13:24;14;9;
55518;PMS5003;41724;51.176;-0.708;2023-11-19T08:15:52;6;5;
55518;PMS5003;41724;51.176;-0.708;2023-11-19T08:18:19;7;5;
55518;PMS5003;41724;51.176;-0.708;2023-11-19T08:20:45;11;11;
55518;PMS5003;41724;51.176;-0.708;2023-11-19T08:23:13;6;5;
55518;PMS5003;41724;51.176;-0.708;2023-11-19T08:25:39;8;5;
55518;PMS5003;41724;51.176;-0.708;2023-11-19T08:28:07;8;6;
55518;PMS5003;41724;51.176;-0.708;2023-11-19T08:30:33;12;8;
55518;PMS5003;41724;51.176;-0.708;2023-11-19T08:33:00;10;4;
55518;PMS5003;41724;51.176;-0.708;2023-11-19T08:35:27;6;6;
55518;PMS5003;41724;51.176;-0.708;2023-11-19T08:37:54;10;7;
55518;PMS5003;41724;51.176;-0.708;2023-11-19T08:40:21;10;7;
55518;PMS5003;41724;51.176;-0.708;2023-11-19T08:42:48;12;10;
55518;PMS5003;41724;51.176;-0.708;2023-11-19T08:45:16;6;5;
55518;PMS5003;41724;51.176;-0.708;2023-11-19T08:47:44;15;13;
55518;PMS5003;41724;51.176;-0.708;2023-11-19T08:50:11;8;5;
55518;PMS5003;41724;51.176;-0.708;2023-11-19T08:52:38;6;6;
55518;PMS5003;41724;51.176;-0.708;2023-11-19T08:55:05;11;7;
55518;PMS5003;41724;51.176;-0.708;2023-11-19T08:57:33;11;9;
55518;PMS5003;41724;51.176;-0.708;2023-11-19T08:59:59;7;5;
55518;PMS5003;41724;51.176;-0.708;2023-11-19T09:02:27;11;8;
55518;PMS5003;41724;51.176;-0.708;2023-11-19T09:04:54;9;6;
55518;PMS5003;41724;51.176;-0.708;2023-11-19T09:07:21;7;5;
55518;PMS5003;41724;51.176;-0.708;2023-11-19T09:09:48;4;4;
55518;PMS5003;41724;51.176;-0.708;2023-11-19T09:12:15;12;9;
55518;PMS5003;41724;51.176;-0.708;2023-11-19T09:14:42;14;10;
55518;PMS5003;41724;51.176;-0.708;2023-11-19T09:17:09;6;4;
55518;PMS5003;41724;51.176;-0.708;2023-11-19T09:19:36;11;7;
55518;PMS5003;41724;51.176;-0.708;2023-11-19T09:22:03;9;6;
55518;PMS5003;41724;51.176;-0.708;2023-11-19T09:24:30;10;7;
55518;PMS5003;41724;51.176;-0.708;2023-11-19T09:26:57;9;5;
55518;PMS5003;41724;51.176;-0.708;2023-11-19T09:29:24;10;8;
55518;PMS5003;41724;51.176;-0.708;2023-11-19T09:31:51;5;4;
55518;PMS5003;41724;51.176;-0.708;2023-11-19T09:34:18;4;3;
55518;PMS5003;41724;51.176;-0.708;2023-11-19T09:36:45;10;7;
55518;PMS5003;41724;51.176;-0.708;2023-11-19T09:39:12;7;6;
55518;PMS5003;41724;51.176;-0.708;2023-11-19T09:41:39;7;4;
55518;PMS5003;41724;51.176;-0.708;2023-11-19T09:44:06;8;4;
55518;PMS5003;41724;51.176;-0.708;2023-11-19T09:46:35;6;5;
55518;PMS5003;41724;51.176;-0.708;2023-11-19T09:49:03;4;3;
55518;PMS5003;41724;51.176;-0.708;2023-11-19T09:51:31;4;3;
55518;PMS5003;41724;51.176;-0.708;2023-11-19T09:53:58;5;4;
55518;PMS5003;41724;51.176;-0.708;2023-11-19T09:56:25;5;4;
55518;PMS5003;41724;51.176;-0.708;2023-11-19T09:58:55;5;3;
55518;PMS5003;41724;51.176;-0.708;2023-11-19T10:01:22;4;3;
55518;PMS5003;41724;51.176;-0.708;2023-11-19T10:03:51;7;4;
55518;PMS5003;41724;51.176;-0.708;2023-11-19T10:06:22;7;4;
55518;PMS5003;41724;51.176;-0.708;2023-11-19T10:08:50;6;4;
55518;PMS5003;41724;51.176;-0.708;2023-11-19T10:11:17;5;3;
55518;PMS5003;41724;51.176;-0.708;2023-11-19T10:13:44;7;7;
55518;PMS5003;41724;51.176;-0.708;2023-11-19T10:16:12;11;6;
55518;PMS5003;41724;51.176;-0.708;2023-11-19T10:18:42;10;7;
55518;PMS5003;41724;51.176;-0.708;2023-11-19T10:21:11;11;10;
55518;PMS5003;41724;51.176;-0.708;2023-11-19T10:23:55;9;7;
55518;PMS5003;41724;51.176;-0.708;2023-11-19T10:26:23;12;9;
55518;PMS5003;41724;51.176;-0.708;2023-11-19T10:28:50;7;6;
55518;PMS5003;41724;51.176;-0.708;2023-11-19T10:31:17;12;8;
55518;PMS5003;41724;51.176;-0.708;2023-11-19T10:33:46;11;7;
55518;PMS5003;41724;51.176;-0.708;2023-11-19T10:36:13;10;5;
55518;PMS5003;41724;51.176;-0.708;2023-11-19T10:38:41;6;4;
55518;PMS5003;41724;51.176;-0.708;2023-11-19T10:41:27;10;7;
55518;PMS5003;41724;51.176;-0.708;2023-11-19T10:43:54;7;7;
55518;PMS5003;41724;51.176;-0.708;2023-11-19T10:46:21;7;7;
55518;PMS5003;41724;51.176;-0.708;2023-11-19T10:48:49;7;4;
55518;PMS5003;41724;51.176;-0.708;2023-11-19T10:51:18;8;5;
55518;PMS5003;41724;51.176;-0.708;2023-11-19T10:53:46;8;5;
55518;PMS5003;41724;51.176;-0.708;2023-11-19T10:56:16;11;6;
55518;PMS5003;41724;51.176;-0.708;2023-11-19T10:58:47;8;6;
55518;PMS5003;41724;51.176;-0.708;2023-11-19T11:01:16;6;5;
55518;PMS5003;41724;51.176;-0.708;2023-11-19T11:03:46;8;4;
55518;PMS5003;41724;51.176;-0.708;2023-11-19T11:06:14;8;6;
55518;PMS5003;41724;51.176;-0.708;2023-11-19T11:08:41;6;4;
55518;PMS5003;41724;51.176;-0.708;2023-11-19T11:11:09;4;4;
55518;PMS5003;41724;51.176;-0.708;2023-11-19T11:13:40;7;5;
55518;PMS5003;41724;51.176;-0.708;2023-11-19T11:16:10;5;4;
55518;PMS5003;41724;51.176;-0.708;2023-11-19T11:18:38;6;2;
55518;PMS5003;41724;51.176;-0.708;2023-11-19T11:21:07;8;7;
55518;PMS5003;41724;51.176;-0.708;2023-11-19T11:23:46;2;2;
55518;PMS5003;41724;51.176;-0.708;2023-11-19T11:26:43;4;3;
55518;PMS5003;41724;51.176;-0.708;2023-11-19T11:29:26;10;7;
55518;PMS5003;41724;51.176;-0.708;2023-11-19T11:32:05;5;4;
55518;PMS5003;41724;51.176;-0.708;2023-11-19T11:34:53;10;8;
55518;PMS5003;41724;51.176;-0.708;2023-11-19T11:37:32;7;5;
55518;PMS5003;41724;51.176;-0.708;2023-11-19T11:40:01;4;3;
55518;PMS5003;41724;51.176;-0.708;2023-11-19T11:42:31;6;4;
55518;PMS5003;41724;51.176;-0.708;2023-11-19T11:44:59;7;5;
55518;PMS5003;41724;51.176;-0.708;2023-11-19T11:47:49;5;4;
55518;PMS5003;41724;51.176;-0.708;2023-11-19T11:50:50;7;4;
55518;PMS5003;41724;51.176;-0.708;2023-11-19T11:53:20;7;4;
55518;PMS5003;41724;51.176;-0.708;2023-11-19T11:55:55;5;5;
55518;PMS5003;41724;51.176;-0.708;2023-11-19T11:58:26;3;3;
55518;PMS5003;41724;51.176;-0.708;2023-11-19T12:00:56;6;5;
55518;PMS5003;41724;51.176;-0.708;2023-11-19T12:03:26;6;3;
55518;PMS5003;41724;51.176;-0.708;2023-11-19T12:05:55;6;4;
55518;PMS5003;41724;51.176;-0.708;2023-11-19T12:08:25;3;2;
55518;PMS5003;41724;51.176;-0.708;2023-11-19T12:10:55;3;3;
55518;PMS5003;41724;51.176;-0.708;2023-11-19T12:13:23;6;4;
55518;PMS5003;41724;51.176;-0.708;2023-11-19T12:16:11;6;5;
55518;PMS5003;41724;51.176;-0.708;2023-11-19T12:18:39;3;1;
55518;PMS5003;41724;51.176;-0.708;2023-11-19T12:21:06;5;5;
55518;PMS5003;41724;51.176;-0.708;2023-11-19T12:23:34;16;14;
55518;PMS5003;41724;51.176;-0.708;2023-11-19T12:26:00;8;6;
55518;PMS5003;41724;51.176;-0.708;2023-11-19T12:28:28;9;7;
55518;PMS5003;41724;51.176;-0.708;2023-11-19T12:30:54;12;10;
55518;PMS5003;41724;51.176;-0.708;2023-11-19T12:33:35;8;6;
55518;PMS5003;41724;51.176;-0.708;2023-11-19T12:36:02;3;3;
55518;PMS5003;41724;51.176;-0.708;2023-11-19T12:38:30;9;8;
55518;PMS5003;41724;51.176;-0.708;2023-11-19T12:41:04;4;3;
55518;PMS5003;41724;51.176;-0.708;2023-11-19T12:43:32;3;2;
55518;PMS5003;41724;51.176;-0.708;2023-11-19T12:46:00;5;3;
55518;PMS5003;41724;51.176;-0.708;2023-11-19T12:48:27;3;2;
55518;PMS5003;41724;51.176;-0.708;2023-11-19T12:50:54;5;5;
55518;PMS5003;41724;51.176;-0.708;2023-11-19T12:53:22;3;3;
55518;PMS5003;41724;51.176;-0.708;2023-11-19T12:55:50;7;7;
55518;PMS5003;41724;51.176;-0.708;2023-11-19T12:58:34;4;3;
55518;PMS5003;41724;51.176;-0.708;2023-11-19T13:01:02;4;3;
55518;PMS5003;41724;51.176;-0.708;2023-11-19T13:03:31;5;5;
55518;PMS5003;41724;51.176;-0.708;2023-11-19T13:06:01;8;6;
55518;PMS5003;41724;51.176;-0.708;2023-11-19T13:08:28;4;3;
55518;PMS5003;41724;51.176;-0.708;2023-11-19T13:11:02;5;5;
55518;PMS5003;41724;51.176;-0.708;2023-11-19T13:13:30;2;2;
55518;PMS5003;41724;51.176;-0.708;2023-11-19T13:16:01;4;2;
55518;PMS5003;41724;51.176;-0.708;2023-11-19T13:18:29;4;2;
55518;PMS5003;41724;51.176;-0.708;2023-11-19T13:20:56;3;3;
55518;PMS5003;41724;51.176;-0.708;2023-11-19T13:23:23;6;5;
55518;PMS5003;41724;51.176;-0.708;2023-11-19T13:25:51;5;4;
55518;PMS5003;41724;51.176;-0.708;2023-11-19T13:28:18;4;3;
55518;PMS5003;41724;51.176;-0.708;2023-11-19T13:30:45;2;1;
55518;PMS5003;41724;51.176;-0.708;2023-11-19T13:33:12;2;1;
55518;PMS5003;41724;51.176;-0.708;2023-11-19T13:35:39;2;2;
55518;PMS5003;41724;51.176;-0.708;2023-11-19T13:38:06;1;1;
55518;PMS5003;41724;51.176;-0.708;2023-11-19T13:40:33;2;1;
55518;PMS5003;41724;51.176;-0.708;2023-11-19T13:43:00;3;2;
55518;PMS5003;41724;51.176;-0.708;2023-11-19T13:45:27;2;2;
55518;PMS5003;41724;51.176;-0.708;2023-11-19T13:47:54;1;1;
55518;PMS5003;41724;51.176;-0.708;2023-11-19T13:50:21;4;3;
55518;PMS5003;41724;51.176;-0.708;2023-11-19T13:52:48;3;2;
55518;PMS5003;41724;51.176;-0.708;2023-11-19T13:55:15;2;1;
55518;PMS5003;41724;51.176;-0.708;2023-11-19T13:57:42;5;2;
55518;PMS5003;41724;51.176;-0.708;2023-11-19T14:00:10;4;3;
55518;PMS5003;41724;51.176;-0.708;2023-11-19T14:02:40;4;3;
55518;PMS5003;41724;51.176;-0.708;2023-11-19T14:05:07;3;3;
55518;PMS5003;41724;51.176;-0.708;2023-11-19T14:07:34;2;0;
55518;PMS5003;41724;51.176;-0.708;2023-11-19T14:10:02;4;1;
55518;PMS5003;41724;51.176;-0.708;2023-11-19T14:12:29;3;1;
55518;PMS5003;41724;51.176;-0.708;2023-11-19T14:14:56;3;3;
55518;PMS5003;41724;51.176;-0.708;2023-11-19T14:17:24;2;2;
55518;PMS5003;41724;51.176;-0.708;2023-11-19T14:19:51;3;3;
55518;PMS5003;41724;51.176;-0.708;2023-11-19T14:22:17;2;1;
55518;PMS5003;41724;51.176;-0.708;2023-11-19T14:24:44;4;3;
55518;PMS5003;41724;51.176;-0.708;2023-11-19T14:27:11;2;2;
55518;PMS5003;41724;51.176;-0.708;2023-11-19T14:29:38;3;2;
55518;PMS5003;41724;51.176;-0.708;2023-11-19T14:32:05;3;2;
55518;PMS5003;41724;51.176;-0.708;2023-11-19T14:34:32;3;3;
55518;PMS5003;41724;51.176;-0.708;2023-11-19T14:36:59;3;2;
55518;PMS5003;41724;51.176;-0.708;2023-11-19T14:39:26;2;1;
55518;PMS5003;41724;51.176;-0.708;2023-11-19T14:41:53;2;1;
55518;PMS5003;41724;51.176;-0.708;2023-11-19T14:44:20;3;2;
55518;PMS5003;41724;51.176;-0.708;2023-11-19T14:46:47;1;1;
55518;PMS5003;41724;51.176;-0.708;2023-11-19T14:49:14;2;2;
55518;PMS5003;41724;51.176;-0.708;2023-11-19T14:51:42;8;6;
55518;PMS5003;41724;51.176;-0.708;2023-11-19T14:54:08;5;2;
55518;PMS5003;41724;51.176;-0.708;2023-11-19T14:56:35;2;1;
55518;PMS5003;41724;51.176;-0.708;2023-11-19T14:59:02;2;2;
55518;PMS5003;41724;51.176;-0.708;2023-11-19T15:01:30;2;1;
55518;PMS5003;41724;51.176;-0.708;2023-11-19T15:03:57;4;4;
55518;PMS5003;41724;51.176;-0.708;2023-11-19T15:06:24;2;2;
55518;PMS5003;41724;51.176;-0.708;2023-11-19T15:08:51;1;1;
55518;PMS5003;41724;51.176;-0.708;2023-11-19T15:11:18;1;1;
55518;PMS5003;41724;51.176;-0.708;2023-11-19T15:13:45;2;1;
55518;PMS5003;41724;51.176;-0.708;2023-11-19T15:16:12;1;1;
55518;PMS5003;41724;51.176;-0.708;2023-11-19T15:18:39;2;2;
55518;PMS5003;41724;51.176;-0.708;2023-11-19T15:21:06;3;3;
55518;PMS5003;41724;51.176;-0.708;2023-11-19T15:23:33;3;3;
55518;PMS5003;41724;51.176;-0.708;2023-11-19T15:26:01;4;2;
55518;PMS5003;41724;51.176;-0.708;2023-11-19T15:28:28;9;8;
55518;PMS5003;41724;51.176;-0.708;2023-11-19T15:30:55;7;7;
55518;PMS5003;41724;51.176;-0.708;2023-11-19T15:33:22;9;8;
55518;PMS5003;41724;51.176;-0.708;2023-11-19T15:35:49;7;6;
55518;PMS5003;41724;51.176;-0.708;2023-11-19T15:38:16;8;6;
55518;PMS5003;41724;51.176;-0.708;2023-11-19T15:40:43;4;3;
55518;PMS5003;41724;51.176;-0.708;2023-11-19T15:43:10;3;3;
55518;PMS5003;41724;51.176;-0.708;2023-11-19T15:45:37;9;5;
55518;PMS5003;41724;51.176;-0.708;2023-11-19T15:48:04;7;6;
55518;PMS5003;41724;51.176;-0.708;2023-11-19T15:50:31;3;3;
55518;PMS5003;41724;51.176;-0.708;2023-11-19T15:52:58;5;5;
55518;PMS5003;41724;51.176;-0.708;2023-11-19T15:55:25;3;2;
55518;PMS5003;41724;51.176;-0.708;2023-11-19T15:57:52;1;1;
55518;PMS5003;41724;51.176;-0.708;2023-11-19T16:00:19;3;2;
55518;PMS5003;41724;51.176;-0.708;2023-11-19T16:02:46;4;4;
55518;PMS5003;41724;51.176;-0.708;2023-11-19T16:05:13;4;4;
55518;PMS5003;41724;51.176;-0.708;2023-11-19T16:07:40;4;4;
55518;PMS5003;41724;51.176;-0.708;2023-11-19T16:10:08;3;2;
55518;PMS5003;41724;51.176;-0.708;2023-11-19T16:12:35;6;3;
55518;PMS5003;41724;51.176;-0.708;2023-11-19T16:15:02;4;1;
55518;PMS5003;41724;51.176;-0.708;2023-11-19T16:17:30;5;4;
55518;PMS5003;41724;51.176;-0.708;2023-11-19T16:19:57;3;3;
55518;PMS5003;41724;51.176;-0.708;2023-11-19T16:22:24;6;2;
55518;PMS5003;41724;51.176;-0.708;2023-11-19T16:24:51;3;3;
55518;PMS5003;41724;51.176;-0.708;2023-11-19T16:27:20;5;4;
55518;PMS5003;41724;51.176;-0.708;2023-11-19T16:29:47;5;5;